createdAt,value
2017-09-25T00:01:10.079Z,16.67
2017-09-25T00:03:37.475Z,16.64
2017-09-25T00:06:04.891Z,16.62
2017-09-25T00:08:32.287Z,16.36
2017-09-25T00:10:59.693Z,16.25
2017-09-25T00:13:27.087Z,16.26
2017-09-25T00:15:54.491Z,16.08
2017-09-25T00:18:21.893Z,15.89
2017-09-25T00:20:49.294Z,15.61
2017-09-25T00:23:16.694Z,15.61
2017-09-25T00:25:44.190Z,15.72
2017-09-25T00:28:11.646Z,16.00
2017-09-25T00:30:39.106Z,16.31
2017-09-25T00:33:06.511Z,16.43
2017-09-25T00:35:33.914Z,16.68
2017-09-25T00:38:01.306Z,16.91
2017-09-25T00:40:28.702Z,17.11
2017-09-25T00:42:56.103Z,17.19
2017-09-25T00:45:23.495Z,17.26
2017-09-25T00:47:50.901Z,17.37
2017-09-25T00:50:18.290Z,17.51
2017-09-25T00:52:57.594Z,17.58
2017-09-25T00:55:28.318Z,17.55
2017-09-25T00:57:55.720Z,17.64
2017-09-25T01:03:51.425Z,17.64
2017-09-25T01:06:26.846Z,17.70
2017-09-25T01:08:54.256Z,17.46
2017-09-25T01:11:21.651Z,17.47
2017-09-25T01:13:49.051Z,17.16
2017-09-25T01:16:16.451Z,17.04
2017-09-25T01:18:43.855Z,16.78
2017-09-25T01:21:11.242Z,16.63
2017-09-25T01:23:38.653Z,16.47
2017-09-25T01:26:06.051Z,16.49
2017-09-25T01:28:33.562Z,16.79
2017-09-25T01:31:00.950Z,16.64
2017-09-25T01:33:28.366Z,16.58
2017-09-25T01:35:55.759Z,16.73
2017-09-25T01:38:23.158Z,16.64
2017-09-25T01:40:50.553Z,16.64
2017-09-25T01:43:17.958Z,17.02
2017-09-25T01:45:45.363Z,17.33
2017-09-25T01:48:12.763Z,17.48
2017-09-25T01:50:40.160Z,17.22
2017-09-25T01:53:07.559Z,16.70
2017-09-25T01:55:34.958Z,16.59
2017-09-25T01:58:02.357Z,16.44
2017-09-25T02:00:29.758Z,16.34
2017-09-25T02:02:57.155Z,16.38
2017-09-25T02:05:24.554Z,16.24
2017-09-25T02:07:52.042Z,16.40
2017-09-25T02:10:19.499Z,16.14
2017-09-25T02:12:46.898Z,15.83
2017-09-25T02:15:14.299Z,15.95
2017-09-25T02:17:41.686Z,15.84
2017-09-25T02:20:09.090Z,16.16
2017-09-25T02:22:36.486Z,16.11
2017-09-25T02:25:03.886Z,15.83
2017-09-25T02:27:31.283Z,15.60
2017-09-25T02:29:58.687Z,15.39
2017-09-25T02:32:26.083Z,15.52
2017-09-25T02:34:53.487Z,15.50
2017-09-25T02:37:20.888Z,15.53
2017-09-25T02:39:48.368Z,15.53
2017-09-25T02:42:15.929Z,15.54
2017-09-25T02:44:43.319Z,15.56
2017-09-25T02:47:10.812Z,15.47
2017-09-25T02:49:38.208Z,15.42
2017-09-25T02:52:05.615Z,15.26
2017-09-25T02:54:33.008Z,15.26
2017-09-25T02:57:00.412Z,15.40
2017-09-25T02:59:27.808Z,15.50
2017-09-25T03:01:55.214Z,15.49
2017-09-25T03:04:22.627Z,15.58
2017-09-25T03:06:50.026Z,15.57
2017-09-25T03:09:17.420Z,15.83
2017-09-25T03:11:44.819Z,16.10
2017-09-25T03:14:12.215Z,15.89
2017-09-25T03:16:39.616Z,15.60
2017-09-25T03:19:07.018Z,15.43
2017-09-25T03:21:34.420Z,15.35
2017-09-25T03:24:01.815Z,15.37
2017-09-25T03:26:29.215Z,15.36
2017-09-25T03:29:03.288Z,15.18
2017-09-25T03:31:30.690Z,15.17
2017-09-25T03:33:58.090Z,15.10
2017-09-25T03:36:25.486Z,15.16
2017-09-25T03:38:52.892Z,14.94
2017-09-25T03:41:20.286Z,14.96
2017-09-25T03:43:47.687Z,14.84
2017-09-25T03:46:15.090Z,14.96
2017-09-25T03:48:42.487Z,14.90
2017-09-25T03:51:09.902Z,14.93
2017-09-25T03:53:37.298Z,14.99
2017-09-25T03:58:45.614Z,14.93
2017-09-25T04:01:13.035Z,14.85
2017-09-25T04:03:40.445Z,14.88
2017-09-25T04:06:07.839Z,14.96
2017-09-25T04:08:35.252Z,15.08
2017-09-25T04:11:02.699Z,15.30
2017-09-25T04:13:30.109Z,15.34
2017-09-25T04:15:57.494Z,15.03
2017-09-25T04:18:24.903Z,15.10
2017-09-25T04:20:52.297Z,15.22
2017-09-25T04:23:19.693Z,15.36
2017-09-25T04:25:47.095Z,15.47
2017-09-25T04:28:14.584Z,15.46
2017-09-25T04:30:41.979Z,15.42
2017-09-25T04:33:09.398Z,15.48
2017-09-25T04:35:36.798Z,15.62
2017-09-25T04:38:04.262Z,15.69
2017-09-25T04:40:31.775Z,16.01
2017-09-25T04:42:59.175Z,15.99
2017-09-25T04:45:26.583Z,16.07
2017-09-25T04:47:53.974Z,15.90
2017-09-25T04:50:21.391Z,15.91
2017-09-25T04:52:48.791Z,15.81
2017-09-25T04:55:16.307Z,15.93
2017-09-25T04:57:43.707Z,15.78
2017-09-25T05:00:11.120Z,15.93
2017-09-25T05:02:38.570Z,15.83
2017-09-25T05:05:05.971Z,15.88
2017-09-25T05:07:33.367Z,15.93
2017-09-25T05:10:00.775Z,16.03
2017-09-25T05:12:28.171Z,16.10
2017-09-25T05:14:55.575Z,16.22
2017-09-25T05:17:22.973Z,15.97
2017-09-25T05:19:50.382Z,15.96
2017-09-25T05:22:17.782Z,15.79
2017-09-25T05:24:45.275Z,15.69
2017-09-25T05:27:12.675Z,15.78
2017-09-25T05:29:40.071Z,15.83
2017-09-25T05:32:08.418Z,15.69
2017-09-25T05:34:35.819Z,15.81
2017-09-25T05:37:03.214Z,15.60
2017-09-25T05:39:30.630Z,15.54
2017-09-25T05:41:58.039Z,15.44
2017-09-25T05:44:25.431Z,15.35
2017-09-25T05:46:52.834Z,15.35
2017-09-25T05:49:20.235Z,15.40
2017-09-25T05:51:47.631Z,15.57
2017-09-25T05:54:15.027Z,15.80
2017-09-25T05:56:42.418Z,15.84
2017-09-25T05:59:09.826Z,16.13
2017-09-25T06:01:37.222Z,16.22
2017-09-25T06:04:04.627Z,16.24
2017-09-25T06:06:32.030Z,15.98
2017-09-25T06:08:59.499Z,16.24
2017-09-25T06:11:26.902Z,16.28
2017-09-25T06:13:54.396Z,16.23
2017-09-25T06:16:21.794Z,16.35
2017-09-25T06:18:49.194Z,16.29
2017-09-25T06:21:16.600Z,16.54
2017-09-25T06:23:43.990Z,16.77
2017-09-25T06:26:11.385Z,16.60
2017-09-25T06:28:38.807Z,16.29
2017-09-25T06:31:06.216Z,16.14
2017-09-25T06:33:33.616Z,16.29
2017-09-25T06:36:01.006Z,16.34
2017-09-25T06:38:28.411Z,16.15
2017-09-25T06:40:55.802Z,16.25
2017-09-25T06:43:23.279Z,16.27
2017-09-25T06:45:50.687Z,16.29
2017-09-25T06:48:18.083Z,16.25
2017-09-25T06:50:45.474Z,16.38
2017-09-25T06:53:12.906Z,16.40
2017-09-25T06:55:40.298Z,16.50
2017-09-25T06:58:07.708Z,16.43
2017-09-25T07:00:35.103Z,16.28
2017-09-25T07:03:02.510Z,16.67
2017-09-25T07:05:29.911Z,16.72
2017-09-25T07:07:57.327Z,16.83
2017-09-25T07:10:24.719Z,16.97
2017-09-25T07:12:52.120Z,16.99
2017-09-25T07:15:19.511Z,17.38
2017-09-25T07:17:46.916Z,17.39
2017-09-25T07:20:14.311Z,17.33
2017-09-25T07:22:41.763Z,17.27
2017-09-25T07:25:09.159Z,17.55
2017-09-25T07:27:36.559Z,17.37
2017-09-25T07:30:04.083Z,17.57
2017-09-25T07:32:31.483Z,17.55
2017-09-25T07:34:58.918Z,17.43
2017-09-25T07:37:26.306Z,17.77
2017-09-25T07:39:53.702Z,17.65
2017-09-25T07:42:21.102Z,17.91
2017-09-25T07:44:48.490Z,18.02
2017-09-25T07:47:15.892Z,17.90
2017-09-25T07:49:43.286Z,17.86
2017-09-25T07:52:10.690Z,18.19
2017-09-25T07:54:38.078Z,18.16
2017-09-25T07:57:05.478Z,18.22
2017-09-25T07:59:32.878Z,18.04
2017-09-25T08:02:00.282Z,17.95
2017-09-25T08:04:27.676Z,17.88
2017-09-25T08:06:55.071Z,17.63
2017-09-25T08:09:22.482Z,17.85
2017-09-25T08:11:49.883Z,17.63
2017-09-25T08:14:17.278Z,17.58
2017-09-25T08:16:44.760Z,17.50
2017-09-25T08:19:12.159Z,17.59
2017-09-25T08:21:39.558Z,17.51
2017-09-25T08:24:06.966Z,17.53
2017-09-25T08:26:34.466Z,17.39
2017-09-25T08:29:01.862Z,17.43
2017-09-25T08:31:29.253Z,17.35
2017-09-25T08:33:56.655Z,17.56
2017-09-25T08:36:24.053Z,17.66
2017-09-25T08:38:51.570Z,17.58
2017-09-25T08:41:18.962Z,17.57
2017-09-25T08:43:46.386Z,17.47
2017-09-25T08:46:13.856Z,17.49
2017-09-25T08:48:41.307Z,17.30
2017-09-25T08:51:08.704Z,17.52
2017-09-25T08:53:36.106Z,17.70
2017-09-25T08:56:03.507Z,17.66
2017-09-25T08:58:30.903Z,17.82
2017-09-25T09:00:58.298Z,17.93
2017-09-25T09:03:25.727Z,17.95
2017-09-25T09:05:53.122Z,17.82
2017-09-25T09:08:32.318Z,17.66
2017-09-25T09:10:59.731Z,17.64
2017-09-25T09:13:27.139Z,17.56
2017-09-25T09:15:54.536Z,17.56
2017-09-25T09:18:21.938Z,17.67
2017-09-25T09:20:49.334Z,17.70
2017-09-25T09:23:16.806Z,17.80
2017-09-25T09:25:44.194Z,17.77
2017-09-25T09:28:11.602Z,17.99
2017-09-25T09:30:38.995Z,18.09
2017-09-25T09:33:06.391Z,17.89
2017-09-25T09:35:33.786Z,17.80
2017-09-25T09:38:01.180Z,17.77
2017-09-25T09:40:28.584Z,17.49
2017-09-25T09:42:56.057Z,17.33
2017-09-25T09:45:23.450Z,17.32
2017-09-25T09:47:50.867Z,17.52
2017-09-25T09:50:18.267Z,17.27
2017-09-25T09:52:45.675Z,17.39
2017-09-25T09:55:13.134Z,17.63
2017-09-25T09:57:40.526Z,17.57
2017-09-25T10:00:07.934Z,17.61
2017-09-25T10:02:35.323Z,17.76
2017-09-25T10:05:02.731Z,17.61
2017-09-25T10:07:30.217Z,17.62
2017-09-25T10:09:57.663Z,17.88
2017-09-25T10:12:25.126Z,17.88
2017-09-25T10:14:52.528Z,17.81
2017-09-25T10:17:19.966Z,17.77
2017-09-25T10:19:47.364Z,17.91
2017-09-25T10:22:14.761Z,17.99
2017-09-25T10:27:16.010Z,17.74
2017-09-25T10:29:43.414Z,17.73
2017-09-25T10:32:10.811Z,17.51
2017-09-25T10:34:38.207Z,17.29
2017-09-25T10:37:05.602Z,17.43
2017-09-25T10:39:33.006Z,17.51
2017-09-25T10:42:00.398Z,17.55
2017-09-25T10:44:27.795Z,17.53
2017-09-25T10:46:55.199Z,17.61
2017-09-25T10:49:22.592Z,17.64
2017-09-25T10:51:49.987Z,17.61
2017-09-25T10:54:17.374Z,17.70
2017-09-25T10:56:44.779Z,17.77
2017-09-25T10:59:12.166Z,17.78
2017-09-25T11:01:39.586Z,17.80
2017-09-25T11:04:06.987Z,17.83
2017-09-25T11:06:34.406Z,17.86
2017-09-25T11:09:01.799Z,18.03
2017-09-25T11:11:29.203Z,18.17
2017-09-25T11:13:56.599Z,18.24
2017-09-25T11:16:24.031Z,18.26
2017-09-25T11:18:51.422Z,18.27
2017-09-25T11:21:18.827Z,18.30
2017-09-25T11:23:46.235Z,18.28
2017-09-25T11:26:13.639Z,18.34
2017-09-25T11:28:41.034Z,18.56
2017-09-25T11:31:08.435Z,18.74
2017-09-25T11:33:35.834Z,18.96
2017-09-25T11:36:03.236Z,19.20
2017-09-25T11:38:30.645Z,19.34
2017-09-25T11:40:58.035Z,19.17
2017-09-25T11:43:25.539Z,19.14
2017-09-25T11:45:52.939Z,19.10
2017-09-25T11:48:20.334Z,18.90
2017-09-25T11:50:47.756Z,18.96
2017-09-25T11:53:15.209Z,19.06
2017-09-25T11:55:42.606Z,19.16
2017-09-25T11:58:10.011Z,19.28
2017-09-25T12:00:37.449Z,19.39
2017-09-25T12:03:04.842Z,19.57
2017-09-25T12:05:32.230Z,19.57
2017-09-25T12:07:59.627Z,19.61
2017-09-25T12:10:27.021Z,19.66
2017-09-25T12:12:54.419Z,19.67
2017-09-25T12:15:21.811Z,19.71
2017-09-25T12:17:49.227Z,19.86
2017-09-25T12:20:16.617Z,19.72
2017-09-25T12:22:44.018Z,19.57
2017-09-25T12:25:11.410Z,19.60
2017-09-25T12:27:38.813Z,19.82
2017-09-25T12:30:06.206Z,20.02
2017-09-25T12:32:34.502Z,20.07
2017-09-25T12:35:01.890Z,20.21
2017-09-25T12:37:29.295Z,20.61
2017-09-25T12:39:56.692Z,21.06
2017-09-25T12:42:24.092Z,20.99
2017-09-25T12:44:51.491Z,20.99
2017-09-25T12:47:18.929Z,20.69
2017-09-25T12:49:46.333Z,20.37
2017-09-25T12:52:13.741Z,20.32
2017-09-25T12:54:41.135Z,20.17
2017-09-25T12:57:08.539Z,20.17
2017-09-25T12:59:35.939Z,19.90
2017-09-25T13:02:03.355Z,19.78
2017-09-25T13:04:30.762Z,19.66
2017-09-25T13:06:58.214Z,19.73
2017-09-25T13:09:25.611Z,19.73
2017-09-25T13:11:53.036Z,19.98
2017-09-25T13:14:20.435Z,20.13
2017-09-25T13:16:47.835Z,20.03
2017-09-25T13:19:15.354Z,20.04
2017-09-25T13:21:42.807Z,19.99
2017-09-25T13:24:10.218Z,19.92
2017-09-25T13:26:37.611Z,19.87
2017-09-25T13:29:05.017Z,20.03
2017-09-25T13:31:32.430Z,20.11
2017-09-25T13:33:59.828Z,20.19
2017-09-25T13:36:27.227Z,20.53
2017-09-25T13:38:54.618Z,20.76
2017-09-25T13:41:22.022Z,21.31
2017-09-25T13:43:49.419Z,21.07
2017-09-25T13:46:16.810Z,20.77
2017-09-25T13:48:44.215Z,20.76
2017-09-25T13:51:11.607Z,20.54
2017-09-25T13:53:39.006Z,20.25
2017-09-25T13:56:06.405Z,19.97
2017-09-25T13:58:33.847Z,19.67
2017-09-25T14:03:34.086Z,19.27
2017-09-25T14:06:01.482Z,19.36
2017-09-25T14:08:28.896Z,19.45
2017-09-25T14:10:56.282Z,19.62
2017-09-25T14:13:23.711Z,20.04
2017-09-25T14:15:51.099Z,20.29
2017-09-25T14:18:18.516Z,20.25
2017-09-25T14:20:45.903Z,20.44
2017-09-25T14:23:13.309Z,20.55
2017-09-25T14:25:40.807Z,20.73
2017-09-25T14:28:08.200Z,20.92
2017-09-25T14:30:35.715Z,21.15
2017-09-25T14:33:03.107Z,21.12
2017-09-25T14:35:30.515Z,21.10
2017-09-25T14:37:57.920Z,21.01
2017-09-25T14:40:25.306Z,21.07
2017-09-25T14:42:52.791Z,20.78
2017-09-25T14:45:20.171Z,20.33
2017-09-25T14:47:47.562Z,20.02
2017-09-25T14:50:14.965Z,19.80
2017-09-25T14:52:42.406Z,19.44
2017-09-25T14:55:09.815Z,19.26
2017-09-25T14:57:37.212Z,19.12
2017-09-25T15:00:04.611Z,19.08
2017-09-25T15:02:31.998Z,18.93
2017-09-25T15:04:59.399Z,18.83
2017-09-25T15:07:27.996Z,18.93
2017-09-25T15:09:55.398Z,18.91
2017-09-25T15:12:22.886Z,19.02
2017-09-25T15:14:50.284Z,19.13
2017-09-25T15:17:18.022Z,19.07
2017-09-25T15:19:45.415Z,18.98
2017-09-25T15:22:12.807Z,19.13
2017-09-25T15:24:40.203Z,19.25
2017-09-25T15:27:07.598Z,19.20
2017-09-25T15:29:34.995Z,19.44
2017-09-25T15:32:02.396Z,19.47
2017-09-25T15:34:30.763Z,19.49
2017-09-25T15:36:58.248Z,19.49
2017-09-25T15:39:25.642Z,19.45
2017-09-25T15:41:53.048Z,19.48
2017-09-25T15:44:20.434Z,19.27
2017-09-25T15:46:47.844Z,19.49
2017-09-25T15:49:15.238Z,19.23
2017-09-25T15:51:42.630Z,19.26
2017-09-25T15:54:10.032Z,19.29
2017-09-25T15:56:37.442Z,19.16
2017-09-25T15:59:04.839Z,19.11
2017-09-25T16:01:32.300Z,18.64
2017-09-25T16:03:59.744Z,18.48
2017-09-25T16:06:27.151Z,18.23
2017-09-25T16:08:54.554Z,17.99
2017-09-25T16:11:21.955Z,17.68
2017-09-25T16:13:49.351Z,17.71
2017-09-25T16:16:16.755Z,17.84
2017-09-25T16:18:44.159Z,17.49
2017-09-25T16:21:11.551Z,17.55
2017-09-25T16:23:38.954Z,17.48
2017-09-25T16:26:06.342Z,17.42
2017-09-25T16:28:33.799Z,17.36
2017-09-25T16:31:01.194Z,17.27
2017-09-25T16:33:28.591Z,17.19
2017-09-25T16:35:55.986Z,17.05
2017-09-25T16:38:23.420Z,17.00
2017-09-25T16:40:50.811Z,16.91
2017-09-25T16:43:18.213Z,16.89
2017-09-25T16:45:45.594Z,16.93
2017-09-25T16:48:13.001Z,17.02
2017-09-25T16:50:40.391Z,17.22
2017-09-25T16:53:07.787Z,17.17
2017-09-25T16:55:35.183Z,17.32
2017-09-25T16:58:02.670Z,17.38
2017-09-25T17:00:30.062Z,17.26
2017-09-25T17:02:57.462Z,17.32
2017-09-25T17:05:24.855Z,17.42
2017-09-25T17:07:52.243Z,17.41
2017-09-25T17:10:19.719Z,17.43
2017-09-25T17:12:47.126Z,17.54
2017-09-25T17:15:14.564Z,17.76
2017-09-25T17:17:41.950Z,17.98
2017-09-25T17:20:09.350Z,18.32
2017-09-25T17:22:36.742Z,18.53
2017-09-25T17:25:04.144Z,18.63
2017-09-25T17:27:31.539Z,18.69
2017-09-25T17:29:58.946Z,18.71
2017-09-25T17:32:26.418Z,18.44
2017-09-25T17:34:53.820Z,18.53
2017-09-25T17:37:21.215Z,18.35
2017-09-25T17:39:48.621Z,18.22
2017-09-25T17:42:16.124Z,18.09
2017-09-25T17:44:43.522Z,17.70
2017-09-25T17:47:10.919Z,17.18
2017-09-25T17:49:38.322Z,17.08
2017-09-25T17:52:05.729Z,17.03
2017-09-25T17:54:33.135Z,16.80
2017-09-25T17:57:00.533Z,16.91
2017-09-25T17:59:28.014Z,16.74
2017-09-25T18:01:55.470Z,16.37
2017-09-25T18:04:22.874Z,16.44
2017-09-25T18:06:50.266Z,16.21
2017-09-25T18:09:17.670Z,16.35
2017-09-25T18:11:45.073Z,16.39
2017-09-25T18:14:12.467Z,16.28
2017-09-25T18:16:39.952Z,16.32
2017-09-25T18:19:07.331Z,16.31
2017-09-25T18:21:34.731Z,16.36
2017-09-25T18:24:02.123Z,16.29
2017-09-25T18:26:29.529Z,16.15
2017-09-25T18:28:56.926Z,16.20
2017-09-25T18:31:24.339Z,16.02
2017-09-25T18:33:51.790Z,16.10
2017-09-25T18:36:19.190Z,15.93
2017-09-25T18:38:46.583Z,15.79
2017-09-25T18:41:13.987Z,15.75
2017-09-25T18:43:41.384Z,15.70
2017-09-25T18:46:08.866Z,15.80
2017-09-25T18:48:36.323Z,15.83
2017-09-25T18:51:03.724Z,15.87
2017-09-25T18:53:31.118Z,15.77
2017-09-25T18:55:58.510Z,15.67
2017-09-25T18:58:25.902Z,15.48
2017-09-25T19:00:53.311Z,15.57
2017-09-25T19:03:20.710Z,15.57
2017-09-25T19:05:48.220Z,15.54
2017-09-25T19:08:15.619Z,15.59
2017-09-25T19:10:43.031Z,15.44
2017-09-25T19:13:10.431Z,15.22
2017-09-25T19:15:37.827Z,15.31
2017-09-25T19:18:05.304Z,15.32
2017-09-25T19:20:33.050Z,15.36
2017-09-25T19:23:00.434Z,15.70
2017-09-25T19:25:27.828Z,15.57
2017-09-25T19:27:55.236Z,15.59
2017-09-25T19:30:22.686Z,15.69
2017-09-25T19:32:50.090Z,15.71
2017-09-25T19:35:17.490Z,15.55
2017-09-25T19:37:44.880Z,15.64
2017-09-25T19:40:12.275Z,15.70
2017-09-25T19:42:39.681Z,15.81
2017-09-25T19:45:07.085Z,15.69
2017-09-25T19:50:45.239Z,15.77
2017-09-25T19:53:12.643Z,15.63
2017-09-25T19:55:41.513Z,15.64
2017-09-25T19:58:13.393Z,15.65
2017-09-25T20:00:40.798Z,15.53
2017-09-25T20:03:08.208Z,15.34
2017-09-25T20:05:35.603Z,15.49
2017-09-25T20:08:02.998Z,15.52
2017-09-25T20:10:31.281Z,15.82
2017-09-25T20:12:58.678Z,16.02
2017-09-25T20:15:29.938Z,15.98
2017-09-25T20:17:57.328Z,16.19
2017-09-25T20:20:24.730Z,15.99
2017-09-25T20:22:52.122Z,16.19
2017-09-25T20:25:19.518Z,16.52
2017-09-25T20:27:46.915Z,16.43
2017-09-25T20:30:14.318Z,16.57
2017-09-25T20:32:41.723Z,16.27
2017-09-25T20:35:09.111Z,16.47
2017-09-25T20:37:36.523Z,16.35
2017-09-25T20:40:03.910Z,16.20
2017-09-25T20:42:37.153Z,16.26
2017-09-25T20:45:04.537Z,16.20
2017-09-25T20:47:31.934Z,15.98
2017-09-25T20:49:59.334Z,15.78
2017-09-25T20:52:26.731Z,15.57
2017-09-25T20:54:54.134Z,15.65
2017-09-25T20:57:21.545Z,15.61
2017-09-25T20:59:48.954Z,15.65
2017-09-25T21:02:16.342Z,15.56
2017-09-25T21:04:43.752Z,15.44
2017-09-25T21:07:11.247Z,15.53
2017-09-25T21:09:38.642Z,15.35
2017-09-25T21:12:06.046Z,15.34
2017-09-25T21:14:33.439Z,15.32
2017-09-25T21:17:00.840Z,15.06
2017-09-25T21:19:28.234Z,15.20
2017-09-25T21:21:55.638Z,15.02
2017-09-25T21:24:23.039Z,14.92
2017-09-25T21:26:52.758Z,14.91
2017-09-25T21:29:20.153Z,14.99
2017-09-25T21:31:47.550Z,14.94
2017-09-25T21:34:14.938Z,14.78
2017-09-25T21:36:42.346Z,14.72
2017-09-25T21:39:09.747Z,14.65
2017-09-25T21:41:37.150Z,14.50
2017-09-25T21:44:04.545Z,14.60
2017-09-25T21:46:31.945Z,14.52
2017-09-25T21:48:59.335Z,14.54
2017-09-25T21:51:26.734Z,14.46
2017-09-25T21:53:54.180Z,14.55
2017-09-25T21:56:21.574Z,14.51
2017-09-25T21:58:48.969Z,14.44
2017-09-25T22:01:16.567Z,14.45
2017-09-25T22:03:43.965Z,14.60
2017-09-25T22:06:11.450Z,14.61
2017-09-25T22:08:38.870Z,14.54
2017-09-25T22:11:06.278Z,14.65
2017-09-25T22:13:33.770Z,14.58
2017-09-25T22:16:01.169Z,14.60
2017-09-25T22:18:28.668Z,14.43
2017-09-25T22:20:56.074Z,14.49
2017-09-25T22:23:23.470Z,14.59
2017-09-25T22:25:50.874Z,14.52
2017-09-25T22:28:18.278Z,14.52
2017-09-25T22:30:45.678Z,14.48
2017-09-25T22:33:13.133Z,14.51
2017-09-25T22:35:40.626Z,14.50
2017-09-25T22:38:08.036Z,14.56
2017-09-25T22:40:35.660Z,14.71
2017-09-25T22:43:18.726Z,14.80
2017-09-25T22:45:46.123Z,14.72
2017-09-25T22:48:13.518Z,14.75
2017-09-25T22:50:40.905Z,14.60
2017-09-25T22:53:08.310Z,14.59
2017-09-25T22:55:35.706Z,14.63
2017-09-25T22:58:03.106Z,14.67
2017-09-25T23:00:30.503Z,14.76
2017-09-25T23:02:58.124Z,14.78
2017-09-25T23:05:27.004Z,14.69
2017-09-25T23:07:54.399Z,14.62
2017-09-25T23:10:21.794Z,14.73
2017-09-25T23:12:49.196Z,14.82
2017-09-25T23:15:16.591Z,14.95
2017-09-25T23:17:43.987Z,15.02
2017-09-25T23:20:11.387Z,15.08
2017-09-25T23:22:38.782Z,15.12
2017-09-25T23:25:06.189Z,15.02
2017-09-25T23:27:33.578Z,15.35
2017-09-25T23:30:01.739Z,15.21
2017-09-25T23:32:29.135Z,15.07
2017-09-25T23:34:56.534Z,15.11
2017-09-25T23:37:23.926Z,15.26
2017-09-25T23:39:51.326Z,15.17
2017-09-25T23:42:18.741Z,15.19
2017-09-25T23:44:46.142Z,15.14
2017-09-25T23:47:13.553Z,14.94
2017-09-25T23:49:40.949Z,14.70
2017-09-25T23:52:08.342Z,14.76
2017-09-25T23:54:35.742Z,14.67
2017-09-25T23:57:03.138Z,14.70
2017-09-25T23:59:30.534Z,14.68
